Terminal Aerodrome Forecast
Issued by NWS Louisville, KY

Home | Current Version | Previous Version | Text Only | Print | Product List | Glossary On
Versions: 1 2 3 4 5 6 7 8 9 10 11 12 13 14 15
947
FTUS43 KLMK 221120
TAFSDF
TAF
KSDF 221120Z 2212/2318 07005KT P6SM VCSH SCT010 BKN035
     FM221800 08009KT 3SM -SHRA BKN010
     FM230100 01012G18KT 4SM -SHRA BR BKN010
     FM230700 34017G24KT P6SM -SHRA BKN015=

USA.gov is the U.S. government's official web portal to all federal, state and local government web resources and services.